createdAt,value
2018-03-31T00:00:35.991Z,82.28
2018-03-31T00:03:04.153Z,84.82
2018-03-31T00:05:32.362Z,85.80
2018-03-31T00:08:00.510Z,82.32
2018-03-31T00:10:28.741Z,83.35
2018-03-31T00:12:57.040Z,83.07
2018-03-31T00:15:25.312Z,78.90
2018-03-31T00:17:53.495Z,81.22
2018-03-31T00:20:22.718Z,83.15
2018-03-31T00:22:51.834Z,86.50
2018-03-31T00:25:20.054Z,91.93
2018-03-31T00:27:48.239Z,90.03
2018-03-31T00:30:16.423Z,88.45
2018-03-31T00:32:44.609Z,99.68
2018-03-31T00:35:12.578Z,96.05
2018-03-31T00:37:40.756Z,91.15
2018-03-31T00:40:08.897Z,97.88
2018-03-31T00:42:37.082Z,93.18
2018-03-31T00:45:05.484Z,97.25
2018-03-31T00:47:33.739Z,98.47
2018-03-31T00:50:01.902Z,99.57
2018-03-31T00:52:30.113Z,79.95
2018-03-31T00:54:58.257Z,61.80
2018-03-31T00:57:26.439Z,51.53
2018-03-31T00:59:54.613Z,50.95
2018-03-31T01:02:22.917Z,54.03
2018-03-31T01:04:51.189Z,51.80
2018-03-31T01:07:19.337Z,51.05
2018-03-31T01:09:47.510Z,54.08
2018-03-31T01:12:15.727Z,48.92
2018-03-31T01:14:43.953Z,43.10
2018-03-31T01:17:12.167Z,54.05
2018-03-31T01:19:40.514Z,48.07
2018-03-31T01:22:08.690Z,48.93
2018-03-31T01:24:37.102Z,49.53
2018-03-31T01:27:05.674Z,52.60
2018-03-31T01:29:33.935Z,52.60
2018-03-31T01:32:02.135Z,50.17
2018-03-31T01:34:30.401Z,50.63
2018-03-31T01:36:58.552Z,54.33
2018-03-31T01:39:26.724Z,55.60
2018-03-31T01:41:54.997Z,61.30
2018-03-31T01:44:23.209Z,60.92
2018-03-31T01:46:51.345Z,63.87
2018-03-31T01:49:19.546Z,61.40
2018-03-31T01:51:47.950Z,65.18
2018-03-31T01:54:16.259Z,68.03
2018-03-31T01:56:44.465Z,69.95
2018-03-31T01:59:12.665Z,69.53
2018-03-31T02:01:40.949Z,65.28
2018-03-31T02:04:09.099Z,66.37
2018-03-31T02:06:37.514Z,62.78
2018-03-31T02:09:05.749Z,65.53
2018-03-31T02:11:33.957Z,67.35
2018-03-31T02:14:02.330Z,66.87
2018-03-31T02:16:30.617Z,65.43
2018-03-31T02:18:58.921Z,67.53
2018-03-31T02:21:27.131Z,63.95
2018-03-31T02:23:55.339Z,62.45
2018-03-31T02:26:23.484Z,61.25
2018-03-31T02:28:51.851Z,60.95
2018-03-31T02:31:20.837Z,61.92
2018-03-31T02:33:49.262Z,57.22
2018-03-31T02:36:17.651Z,56.70
2018-03-31T02:38:45.934Z,55.50
2018-03-31T02:41:14.153Z,58.50
2018-03-31T02:43:42.368Z,54.88
2018-03-31T02:46:10.609Z,55.43
2018-03-31T02:48:38.755Z,56.13
2018-03-31T02:51:07.000Z,54.38
2018-03-31T02:53:35.373Z,53.10
2018-03-31T02:56:03.767Z,51.20
2018-03-31T02:58:31.990Z,50.88
2018-03-31T03:01:00.174Z,48.70
2018-03-31T03:03:28.174Z,49.92
2018-03-31T03:05:56.146Z,48.83
2018-03-31T03:08:24.279Z,50.00
2018-03-31T03:10:52.515Z,50.80
2018-03-31T03:13:20.653Z,49.90
2018-03-31T03:15:48.299Z,47.20
2018-03-31T03:18:15.999Z,47.47
2018-03-31T03:20:43.659Z,46.10
2018-03-31T03:23:11.338Z,50.63
2018-03-31T03:25:39.021Z,50.88
2018-03-31T03:28:06.740Z,49.65
2018-03-31T03:30:34.396Z,46.83
2018-03-31T03:33:02.053Z,51.17
2018-03-31T03:35:29.823Z,50.95
2018-03-31T03:37:57.487Z,48.78
2018-03-31T03:40:25.137Z,47.83
2018-03-31T03:42:52.825Z,48.35
2018-03-31T03:45:20.471Z,44.95
2018-03-31T03:47:48.110Z,45.97
2018-03-31T03:50:15.806Z,47.45
2018-03-31T03:52:43.473Z,46.80
2018-03-31T03:55:11.123Z,47.03
2018-03-31T03:57:38.895Z,46.83
2018-03-31T04:00:06.661Z,46.00
2018-03-31T04:02:34.371Z,48.87
2018-03-31T04:05:02.084Z,49.50
2018-03-31T04:07:29.909Z,50.05
2018-03-31T04:09:57.567Z,50.00
2018-03-31T04:12:25.261Z,49.20
2018-03-31T04:14:52.940Z,49.35
2018-03-31T04:17:20.681Z,49.65
2018-03-31T04:19:48.325Z,49.58
2018-03-31T04:22:15.979Z,51.33
2018-03-31T04:24:43.818Z,54.75
2018-03-31T04:27:11.665Z,52.40
2018-03-31T04:29:39.309Z,51.55
2018-03-31T04:32:07.093Z,53.10
2018-03-31T04:34:34.734Z,53.00
2018-03-31T04:37:02.423Z,50.42
2018-03-31T04:39:30.349Z,49.47
2018-03-31T04:41:58.026Z,45.72
2018-03-31T04:44:25.712Z,42.23
2018-03-31T04:46:53.370Z,44.70
2018-03-31T04:49:21.129Z,43.83
2018-03-31T04:51:48.836Z,42.33
2018-03-31T04:54:16.554Z,44.97
2018-03-31T04:56:44.231Z,41.17
2018-03-31T04:59:12.657Z,41.00
2018-03-31T05:01:40.444Z,39.53
2018-03-31T05:04:08.374Z,37.13
2018-03-31T05:06:36.079Z,37.00
2018-03-31T05:09:04.482Z,38.93
2018-03-31T05:11:32.145Z,36.30
2018-03-31T05:13:59.890Z,35.57
2018-03-31T05:16:27.571Z,35.33
2018-03-31T05:18:55.290Z,33.37
2018-03-31T05:21:22.965Z,34.17
2018-03-31T05:23:50.751Z,30.40
2018-03-31T05:26:18.393Z,32.57
2018-03-31T05:28:46.089Z,35.37
2018-03-31T05:31:13.752Z,33.27
2018-03-31T05:33:41.405Z,34.57
2018-03-31T05:36:09.063Z,32.43
2018-03-31T05:38:37.490Z,32.17
2018-03-31T05:41:05.162Z,30.50
2018-03-31T05:43:32.830Z,28.80
2018-03-31T05:46:00.525Z,26.17
2018-03-31T05:48:28.178Z,27.83
2018-03-31T05:50:55.827Z,27.87
2018-03-31T05:53:23.734Z,29.83
2018-03-31T05:55:52.037Z,28.03
2018-03-31T05:58:19.677Z,25.53
2018-03-31T06:00:47.369Z,28.27
2018-03-31T06:03:15.105Z,26.70
2018-03-31T06:05:42.887Z,24.03
2018-03-31T06:08:10.534Z,25.20
2018-03-31T06:10:38.185Z,24.10
2018-03-31T06:13:06.066Z,27.20
2018-03-31T06:15:33.720Z,26.50
2018-03-31T06:18:01.676Z,25.83
2018-03-31T06:20:29.974Z,24.23
2018-03-31T06:22:57.740Z,24.20
2018-03-31T06:25:25.391Z,25.73
2018-03-31T06:27:53.055Z,23.97
2018-03-31T06:30:20.739Z,23.07
2018-03-31T06:32:48.434Z,23.80
2018-03-31T06:35:16.075Z,22.63
2018-03-31T06:37:43.828Z,22.20
2018-03-31T06:40:11.509Z,22.67
2018-03-31T06:42:39.244Z,23.87
2018-03-31T06:45:07.001Z,23.23
2018-03-31T06:47:34.699Z,23.10
2018-03-31T06:50:02.378Z,22.30
2018-03-31T06:52:30.047Z,24.00
2018-03-31T06:54:57.687Z,23.53
2018-03-31T06:57:25.322Z,24.17
2018-03-31T06:59:53.088Z,24.23
2018-03-31T07:02:21.382Z,22.97
2018-03-31T07:04:49.035Z,22.80
2018-03-31T07:07:16.840Z,23.23
2018-03-31T07:09:44.517Z,23.00
2018-03-31T07:12:12.169Z,24.17
2018-03-31T07:14:39.867Z,22.80
2018-03-31T07:17:08.205Z,23.03
2018-03-31T07:19:36.682Z,23.50
2018-03-31T07:22:04.491Z,22.73
2018-03-31T07:24:32.168Z,22.90
2018-03-31T07:26:59.939Z,22.23
2018-03-31T07:29:27.601Z,23.13
2018-03-31T07:31:55.251Z,22.63
2018-03-31T07:34:22.890Z,22.60
2018-03-31T07:36:51.261Z,20.73
2018-03-31T07:39:18.963Z,20.17
2018-03-31T07:41:46.624Z,20.17
2018-03-31T07:44:14.306Z,19.63
2018-03-31T07:46:42.058Z,18.63
2018-03-31T07:49:09.713Z,19.87
2018-03-31T07:51:37.474Z,20.63
2018-03-31T07:54:05.171Z,19.27
2018-03-31T07:56:32.872Z,18.73
2018-03-31T07:59:00.518Z,18.33
2018-03-31T08:01:28.332Z,18.83
2018-03-31T08:03:55.995Z,18.57
2018-03-31T08:06:23.629Z,17.53
2018-03-31T08:08:51.307Z,22.27
2018-03-31T08:11:19.065Z,16.70
2018-03-31T08:13:46.763Z,24.93
2018-03-31T08:16:14.462Z,18.30
2018-03-31T08:18:42.187Z,18.07
2018-03-31T08:21:09.974Z,19.23
2018-03-31T08:23:37.654Z,18.50
2018-03-31T08:26:06.094Z,18.77
2018-03-31T08:28:33.744Z,18.33
2018-03-31T08:31:01.423Z,18.57
2018-03-31T08:33:29.106Z,18.13
2018-03-31T08:35:56.755Z,18.23
2018-03-31T08:38:24.406Z,17.17
2018-03-31T08:40:52.059Z,17.07
2018-03-31T08:43:19.797Z,15.37
2018-03-31T08:45:47.488Z,18.70
2018-03-31T08:48:15.148Z,15.43
2018-03-31T08:50:42.855Z,16.00
2018-03-31T08:53:10.585Z,15.93
2018-03-31T08:55:39.157Z,15.73
2018-03-31T08:58:06.831Z,18.60
2018-03-31T09:00:34.595Z,15.33
2018-03-31T09:03:02.365Z,16.33
2018-03-31T09:05:30.019Z,15.47
2018-03-31T09:07:57.661Z,15.60
2018-03-31T09:10:25.458Z,13.37
2018-03-31T09:12:53.218Z,13.77
2018-03-31T09:15:20.986Z,13.10
2018-03-31T09:17:48.788Z,13.70
2018-03-31T09:20:16.435Z,14.37
2018-03-31T09:22:45.783Z,14.17
2018-03-31T09:25:11.946Z,13.17
2018-03-31T09:27:39.699Z,14.30
2018-03-31T09:30:07.387Z,13.53
2018-03-31T09:32:35.125Z,14.63
2018-03-31T09:35:02.786Z,14.23
2018-03-31T09:37:30.430Z,13.53
2018-03-31T09:39:58.148Z,14.53
2018-03-31T09:42:25.810Z,14.97
2018-03-31T09:44:53.552Z,14.20
2018-03-31T09:47:21.204Z,13.03
2018-03-31T09:49:48.868Z,13.90
2018-03-31T09:52:16.642Z,15.03
2018-03-31T09:54:44.350Z,16.30
2018-03-31T09:57:12.019Z,16.77
2018-03-31T09:59:39.730Z,14.67
2018-03-31T10:02:07.417Z,16.03
2018-03-31T10:04:35.159Z,13.00
2018-03-31T10:07:02.931Z,14.67
2018-03-31T10:09:30.626Z,13.87
2018-03-31T10:11:58.310Z,14.87
2018-03-31T10:14:25.953Z,19.97
2018-03-31T10:16:54.296Z,24.87
2018-03-31T10:19:21.953Z,24.23
2018-03-31T10:21:49.867Z,23.53
2018-03-31T10:24:17.586Z,23.70
2018-03-31T10:26:45.550Z,25.83
2018-03-31T10:29:13.203Z,23.27
2018-03-31T10:31:40.984Z,23.67
2018-03-31T10:34:08.730Z,23.37
2018-03-31T10:36:36.415Z,21.93
2018-03-31T10:39:04.107Z,21.97
2018-03-31T10:41:31.754Z,21.00
2018-03-31T10:43:59.506Z,22.73
2018-03-31T10:46:27.185Z,22.43
2018-03-31T10:48:54.934Z,20.33
2018-03-31T10:51:22.578Z,17.97
2018-03-31T10:53:50.285Z,12.63
2018-03-31T10:56:17.973Z,10.77
2018-03-31T10:58:45.627Z,16.73
2018-03-31T11:01:13.313Z,16.33
2018-03-31T11:03:40.955Z,19.00
2018-03-31T11:06:08.625Z,19.40
2018-03-31T11:08:36.277Z,18.27
2018-03-31T11:11:03.927Z,18.23
2018-03-31T11:13:31.689Z,19.63
2018-03-31T11:15:59.335Z,18.77
2018-03-31T11:18:26.979Z,19.03
2018-03-31T11:20:54.657Z,16.43
2018-03-31T11:23:22.923Z,17.77
2018-03-31T11:25:50.803Z,17.13
2018-03-31T11:28:18.441Z,15.97
2018-03-31T11:30:46.094Z,15.40
2018-03-31T11:33:13.743Z,14.97
2018-03-31T11:35:41.448Z,14.27
2018-03-31T11:38:09.125Z,15.53
2018-03-31T11:40:36.880Z,14.47
2018-03-31T11:43:04.533Z,15.80
2018-03-31T11:45:32.246Z,15.77
2018-03-31T11:47:59.915Z,15.13
2018-03-31T11:50:27.567Z,16.00
2018-03-31T11:52:55.267Z,15.67
2018-03-31T11:55:23.181Z,15.43
2018-03-31T11:57:51.385Z,16.30
2018-03-31T12:00:19.129Z,15.83
2018-03-31T12:02:46.789Z,14.33
2018-03-31T12:05:14.433Z,16.23
2018-03-31T12:07:42.190Z,16.23
2018-03-31T12:10:09.867Z,15.83
2018-03-31T12:12:37.567Z,15.70
2018-03-31T12:15:05.260Z,15.70
2018-03-31T12:17:32.924Z,16.60
2018-03-31T12:20:00.761Z,17.80
2018-03-31T12:22:28.422Z,15.87
2018-03-31T12:24:56.072Z,14.47
2018-03-31T12:27:23.809Z,14.43
2018-03-31T12:29:51.685Z,13.23
2018-03-31T12:32:19.409Z,12.10
2018-03-31T12:34:47.092Z,9.30
2018-03-31T12:37:14.735Z,8.20
2018-03-31T12:39:42.422Z,7.57
2018-03-31T12:42:10.094Z,8.13
2018-03-31T12:44:37.749Z,9.30
2018-03-31T12:47:05.381Z,13.67
2018-03-31T12:49:33.017Z,14.43
2018-03-31T12:52:00.731Z,13.57
2018-03-31T12:54:28.461Z,13.47
2018-03-31T12:56:56.110Z,14.00
2018-03-31T12:59:23.801Z,12.83
2018-03-31T13:01:51.437Z,13.10
2018-03-31T13:04:19.158Z,11.83
2018-03-31T13:06:46.837Z,12.13
2018-03-31T13:09:14.482Z,10.57
2018-03-31T13:11:42.226Z,9.47
2018-03-31T13:14:09.992Z,42.50
2018-03-31T13:16:37.677Z,28.00
2018-03-31T13:19:05.427Z,10.10
2018-03-31T13:21:33.123Z,16.20
2018-03-31T13:24:01.036Z,19.23
2018-03-31T13:26:28.698Z,152.47
2018-03-31T13:28:56.381Z,18.20
2018-03-31T13:31:24.046Z,80.23
2018-03-31T13:33:51.691Z,17.30
2018-03-31T13:36:19.466Z,17.00
2018-03-31T13:38:47.181Z,59.17
2018-03-31T13:41:14.826Z,15.70
2018-03-31T13:43:42.477Z,25.93
2018-03-31T13:46:10.175Z,103.77
2018-03-31T13:48:37.842Z,27.63
2018-03-31T13:51:05.473Z,15.07
2018-03-31T13:53:33.311Z,15.47
2018-03-31T13:56:00.957Z,15.30
2018-03-31T13:58:28.738Z,15.30
2018-03-31T14:00:56.454Z,15.97
2018-03-31T14:03:24.175Z,16.10
2018-03-31T14:05:51.918Z,15.93
2018-03-31T14:08:19.698Z,15.77
2018-03-31T14:10:47.350Z,14.40
2018-03-31T14:13:15.041Z,13.70
2018-03-31T14:15:42.794Z,13.63
2018-03-31T14:18:10.433Z,12.63
2018-03-31T14:20:38.307Z,13.67
2018-03-31T14:23:05.982Z,11.03
2018-03-31T14:25:33.745Z,12.60
2018-03-31T14:28:01.381Z,11.87
2018-03-31T14:30:29.082Z,10.50
2018-03-31T14:32:56.740Z,11.17
2018-03-31T14:35:24.413Z,12.33
2018-03-31T14:37:52.141Z,6.70
2018-03-31T14:40:19.814Z,5.77
2018-03-31T14:42:47.492Z,5.67
2018-03-31T14:45:15.345Z,5.90
2018-03-31T14:47:43.030Z,4.83
2018-03-31T14:50:10.680Z,4.87
2018-03-31T14:52:38.364Z,4.93
2018-03-31T14:55:06.011Z,5.03
2018-03-31T14:57:33.778Z,5.20
2018-03-31T15:00:01.449Z,5.87
2018-03-31T15:02:29.104Z,5.73
2018-03-31T15:04:56.976Z,5.97
2018-03-31T15:07:24.654Z,5.23
2018-03-31T15:09:53.793Z,8.60
2018-03-31T15:12:21.485Z,5.57
2018-03-31T15:14:49.159Z,6.27
2018-03-31T15:17:16.822Z,6.10
2018-03-31T15:19:44.591Z,6.73
2018-03-31T15:22:12.458Z,7.50
2018-03-31T15:24:40.267Z,7.60
2018-03-31T15:27:07.913Z,7.83
2018-03-31T15:29:35.698Z,8.23
2018-03-31T15:32:03.387Z,7.57
2018-03-31T15:34:31.035Z,8.20
2018-03-31T15:36:59.730Z,7.37
2018-03-31T15:39:27.443Z,7.70
2018-03-31T15:41:55.176Z,7.77
2018-03-31T15:44:22.818Z,7.40
2018-03-31T15:46:50.604Z,6.30
2018-03-31T15:49:18.233Z,6.90
2018-03-31T15:51:45.918Z,6.37
2018-03-31T15:54:13.699Z,6.30
2018-03-31T15:56:41.334Z,6.90
2018-03-31T15:59:09.026Z,6.10
2018-03-31T16:01:37.304Z,6.50
2018-03-31T16:04:04.947Z,6.93
2018-03-31T16:06:32.659Z,6.40
2018-03-31T16:09:00.322Z,6.37
2018-03-31T16:11:27.964Z,5.87
2018-03-31T16:13:56.579Z,6.53
2018-03-31T16:16:24.228Z,6.07
2018-03-31T16:18:51.860Z,6.10
2018-03-31T16:21:19.538Z,5.97
2018-03-31T16:23:47.189Z,6.70
2018-03-31T16:26:14.956Z,6.37
2018-03-31T16:28:42.599Z,6.90
2018-03-31T16:31:10.229Z,7.40
2018-03-31T16:33:37.942Z,8.03
2018-03-31T16:36:05.606Z,7.10
2018-03-31T16:38:33.317Z,7.00
2018-03-31T16:41:01.032Z,7.60
2018-03-31T16:43:28.694Z,7.43
2018-03-31T16:45:56.383Z,7.17
2018-03-31T16:48:24.126Z,7.17
2018-03-31T16:50:51.801Z,7.57
2018-03-31T16:53:19.477Z,7.43
2018-03-31T16:55:47.118Z,10.40
2018-03-31T16:58:14.773Z,11.90
2018-03-31T17:00:42.459Z,13.20
2018-03-31T17:03:10.149Z,10.17
2018-03-31T17:05:37.814Z,8.37
2018-03-31T17:08:05.630Z,7.80
2018-03-31T17:10:33.287Z,8.27
2018-03-31T17:13:01.473Z,8.27
2018-03-31T17:15:29.167Z,8.00
2018-03-31T17:17:56.897Z,8.73
2018-03-31T17:20:24.624Z,17.67
2018-03-31T17:22:52.336Z,16.83
2018-03-31T17:25:19.986Z,21.57
2018-03-31T17:27:47.657Z,10.60
2018-03-31T17:30:15.317Z,10.00
2018-03-31T17:32:42.985Z,10.47
2018-03-31T17:35:10.630Z,11.53
2018-03-31T17:37:38.277Z,10.60
2018-03-31T17:40:06.010Z,12.33
2018-03-31T17:42:33.701Z,11.03
2018-03-31T17:45:01.391Z,13.97
2018-03-31T17:47:29.029Z,14.43
2018-03-31T17:49:56.692Z,12.37
2018-03-31T17:52:24.475Z,14.73
2018-03-31T17:54:52.185Z,12.37
2018-03-31T17:57:19.835Z,10.90
2018-03-31T17:59:47.491Z,10.23
2018-03-31T18:02:15.220Z,10.07
2018-03-31T18:04:42.877Z,10.00
2018-03-31T18:07:10.556Z,12.63
2018-03-31T18:09:38.327Z,11.63
2018-03-31T18:12:05.965Z,10.73
2018-03-31T18:14:33.631Z,11.97
2018-03-31T18:17:01.305Z,9.97
2018-03-31T18:19:28.952Z,9.43
2018-03-31T18:21:56.661Z,9.43
2018-03-31T18:24:24.401Z,9.90
2018-03-31T18:26:52.150Z,11.27
2018-03-31T18:29:19.851Z,10.47
2018-03-31T18:31:47.490Z,11.77
2018-03-31T18:34:15.125Z,9.33
2018-03-31T18:36:42.813Z,9.30
2018-03-31T18:39:10.493Z,12.60
2018-03-31T18:41:38.186Z,9.30
2018-03-31T18:44:06.012Z,9.23
2018-03-31T18:46:33.649Z,9.07
2018-03-31T18:49:01.294Z,9.40
2018-03-31T18:51:29.060Z,9.17
2018-03-31T18:53:56.765Z,30.90
2018-03-31T18:56:24.423Z,14.40
2018-03-31T18:58:52.487Z,21.40
2018-03-31T19:01:20.161Z,13.03
2018-03-31T19:03:47.806Z,11.90
2018-03-31T19:06:15.498Z,11.10
2018-03-31T19:08:43.142Z,9.00
2018-03-31T19:11:10.919Z,10.57
2018-03-31T19:13:38.600Z,11.23
2018-03-31T19:16:06.277Z,9.77
2018-03-31T19:18:33.931Z,15.77
2018-03-31T19:21:01.611Z,9.87
2018-03-31T19:23:29.249Z,14.90
2018-03-31T19:25:56.890Z,9.90
2018-03-31T19:28:24.565Z,11.90
2018-03-31T19:30:52.217Z,47.07
2018-03-31T19:33:19.857Z,34.87
2018-03-31T19:35:53.093Z,13.80
2018-03-31T19:38:21.577Z,10.60
2018-03-31T19:40:49.287Z,11.53
2018-03-31T19:43:16.954Z,11.73
2018-03-31T19:45:44.589Z,12.77
2018-03-31T19:48:12.229Z,13.07
2018-03-31T19:50:39.872Z,14.93
2018-03-31T19:53:07.585Z,11.60
2018-03-31T19:55:35.300Z,10.87
2018-03-31T19:58:02.955Z,9.83
2018-03-31T20:00:30.621Z,10.67
2018-03-31T20:02:58.305Z,10.60
2018-03-31T20:05:25.995Z,15.57
2018-03-31T20:07:54.349Z,10.13
2018-03-31T20:10:22.049Z,28.70
2018-03-31T20:12:49.730Z,9.70
2018-03-31T20:15:17.385Z,21.47
2018-03-31T20:17:45.126Z,17.97
2018-03-31T20:20:12.838Z,9.13
2018-03-31T20:22:40.507Z,10.03
2018-03-31T20:25:08.267Z,6.60
2018-03-31T20:27:35.907Z,7.13
2018-03-31T20:30:03.553Z,7.27
2018-03-31T20:32:31.230Z,7.97
2018-03-31T20:34:58.930Z,7.40
2018-03-31T20:37:26.573Z,6.40
2018-03-31T20:39:54.480Z,6.70
2018-03-31T20:42:22.146Z,6.10
2018-03-31T20:44:49.978Z,6.50
2018-03-31T20:47:17.638Z,5.90
2018-03-31T20:49:45.267Z,6.50
2018-03-31T20:52:13.521Z,5.77
2018-03-31T20:54:41.250Z,5.93
2018-03-31T20:57:08.896Z,5.87
2018-03-31T20:59:36.592Z,13.90
2018-03-31T21:02:04.344Z,5.67
2018-03-31T21:04:31.981Z,6.33
2018-03-31T21:06:59.621Z,7.67
2018-03-31T21:09:27.267Z,5.80
2018-03-31T21:11:54.983Z,6.60
2018-03-31T21:14:22.685Z,7.63
2018-03-31T21:16:50.326Z,5.53
2018-03-31T21:19:18.085Z,6.23
2018-03-31T21:21:45.766Z,6.77
2018-03-31T21:24:13.404Z,6.67
2018-03-31T21:26:41.052Z,7.40
2018-03-31T21:29:08.736Z,7.23
2018-03-31T21:31:36.502Z,6.83
2018-03-31T21:34:04.784Z,6.30
2018-03-31T21:36:32.417Z,6.30
2018-03-31T21:39:00.066Z,5.80
2018-03-31T21:41:27.768Z,6.27
2018-03-31T21:43:55.397Z,6.03
2018-03-31T21:46:23.039Z,6.27
2018-03-31T21:48:50.707Z,5.63
2018-03-31T21:51:18.505Z,6.50
2018-03-31T21:53:46.185Z,6.27
2018-03-31T21:56:13.858Z,6.33
2018-03-31T21:58:41.494Z,6.40
2018-03-31T22:01:09.230Z,6.63
2018-03-31T22:03:36.893Z,6.63
2018-03-31T22:06:04.553Z,6.50
2018-03-31T22:08:32.339Z,6.27
2018-03-31T22:10:59.977Z,6.73
2018-03-31T22:16:32.166Z,7.83
2018-03-31T22:18:59.845Z,6.93
2018-03-31T22:21:27.640Z,6.17
2018-03-31T22:23:55.274Z,7.37
2018-03-31T22:26:22.941Z,6.67
2018-03-31T22:28:50.631Z,6.13
2018-03-31T22:31:18.323Z,6.00
2018-03-31T22:33:46.054Z,5.70
2018-03-31T22:36:13.695Z,5.73
2018-03-31T22:38:41.373Z,6.30
2018-03-31T22:41:09.073Z,6.33
2018-03-31T22:43:36.754Z,5.73
2018-03-31T22:46:04.426Z,6.60
2018-03-31T22:48:32.073Z,7.57
2018-03-31T22:50:59.734Z,7.17
2018-03-31T22:53:27.433Z,8.20
2018-03-31T22:55:55.097Z,8.00
2018-03-31T22:58:22.759Z,8.63
2018-03-31T23:00:50.435Z,7.70
2018-03-31T23:03:18.682Z,6.67
2018-03-31T23:05:46.989Z,6.07
2018-03-31T23:08:15.097Z,6.43
2018-03-31T23:10:43.412Z,6.30
2018-03-31T23:13:11.717Z,6.17
2018-03-31T23:15:39.993Z,5.93
2018-03-31T23:18:08.950Z,5.80
2018-03-31T23:20:37.134Z,5.90
2018-03-31T23:23:05.338Z,6.33
2018-03-31T23:25:33.458Z,6.80
2018-03-31T23:28:01.745Z,8.30
2018-03-31T23:30:29.993Z,9.57
2018-03-31T23:32:58.209Z,8.90
2018-03-31T23:35:26.430Z,9.30
2018-03-31T23:37:54.577Z,9.43
2018-03-31T23:40:22.357Z,10.97
2018-03-31T23:42:50.066Z,11.93
2018-03-31T23:45:17.785Z,10.37
2018-03-31T23:47:45.491Z,8.70
2018-03-31T23:50:13.221Z,8.20
2018-03-31T23:52:40.897Z,8.87
2018-03-31T23:55:08.610Z,8.70
2018-03-31T23:57:36.261Z,8.97
